createdAt,value
2019-05-18T00:01:28.114Z,29.05
2019-05-18T00:03:56.577Z,30.37
2019-05-18T00:06:25.047Z,30.05
2019-05-18T00:08:53.530Z,31.75
2019-05-18T00:11:22.052Z,28.80
2019-05-18T00:13:50.596Z,31.23
2019-05-18T00:16:19.126Z,30.62
2019-05-18T00:18:47.634Z,30.57
2019-05-18T00:21:16.095Z,30.32
2019-05-18T00:23:44.552Z,30.40
2019-05-18T00:26:13.036Z,30.75
2019-05-18T00:28:41.493Z,31.20
2019-05-18T00:31:10.059Z,30.37
2019-05-18T00:33:38.514Z,32.10
2019-05-18T00:36:07.018Z,32.98
2019-05-18T00:38:35.554Z,33.30
2019-05-18T00:41:04.086Z,32.17
2019-05-18T00:43:32.558Z,32.23
2019-05-18T00:46:01.015Z,32.28
2019-05-18T00:48:29.508Z,30.97
2019-05-18T00:50:57.977Z,31.25
2019-05-18T00:53:26.458Z,34.40
2019-05-18T00:55:54.913Z,31.35
2019-05-18T00:58:23.410Z,32.45
2019-05-18T01:00:51.886Z,35.88
2019-05-18T01:03:20.355Z,30.32
2019-05-18T01:05:48.902Z,32.70
2019-05-18T01:08:17.365Z,30.17
2019-05-18T01:10:45.843Z,34.73
2019-05-18T01:13:14.364Z,33.18
2019-05-18T01:15:42.830Z,30.17
2019-05-18T01:18:11.305Z,30.75
2019-05-18T01:20:40.111Z,32.48
2019-05-18T01:23:08.841Z,35.92
2019-05-18T01:25:37.368Z,31.70
2019-05-18T01:28:05.875Z,31.00
2019-05-18T01:30:34.403Z,32.17
2019-05-18T01:33:03.143Z,30.88
2019-05-18T01:35:31.640Z,31.30
2019-05-18T01:38:00.084Z,32.13
2019-05-18T01:40:28.567Z,32.28
2019-05-18T01:42:57.036Z,32.98
2019-05-18T01:45:25.535Z,33.55
2019-05-18T01:47:54.007Z,33.88
2019-05-18T01:50:22.649Z,30.35
2019-05-18T01:52:51.387Z,33.28
2019-05-18T01:55:19.847Z,30.00
2019-05-18T01:57:48.323Z,33.13
2019-05-18T02:00:17.113Z,31.68
2019-05-18T02:02:45.678Z,30.82
2019-05-18T02:05:14.474Z,32.42
2019-05-18T02:07:42.937Z,32.83
2019-05-18T02:10:11.852Z,34.00
2019-05-18T02:12:40.383Z,33.85
2019-05-18T02:15:09.506Z,34.25
2019-05-18T02:17:38.042Z,31.25
2019-05-18T02:20:07.143Z,33.70
2019-05-18T02:22:35.632Z,34.95
2019-05-18T02:25:07.167Z,31.68
2019-05-18T02:27:35.666Z,32.17
2019-05-18T02:30:06.559Z,29.65
2019-05-18T02:32:35.015Z,30.60
2019-05-18T02:35:05.112Z,29.95
2019-05-18T02:37:33.651Z,32.30
2019-05-18T02:40:02.427Z,31.68
2019-05-18T02:42:31.057Z,40.25
2019-05-18T02:44:59.606Z,32.03
2019-05-18T02:47:28.078Z,32.08
2019-05-18T02:49:56.628Z,32.17
2019-05-18T02:52:25.175Z,29.57
2019-05-18T02:54:53.631Z,31.42
2019-05-18T02:57:22.124Z,29.05
2019-05-18T02:59:50.585Z,30.60
2019-05-18T03:02:19.043Z,29.48
2019-05-18T03:04:47.527Z,29.75
2019-05-18T03:07:16.195Z,32.80
2019-05-18T03:09:44.674Z,32.00
2019-05-18T03:12:13.145Z,28.83
2019-05-18T03:14:41.730Z,30.23
2019-05-18T03:17:10.266Z,29.02
2019-05-18T03:19:38.797Z,32.63
2019-05-18T03:22:07.359Z,28.45
2019-05-18T03:24:35.812Z,29.27
2019-05-18T03:27:04.348Z,30.08
2019-05-18T03:29:32.812Z,31.50
2019-05-18T03:32:01.327Z,29.12
2019-05-18T03:34:29.861Z,29.80
2019-05-18T03:36:58.394Z,31.00
2019-05-18T03:39:26.948Z,29.72
2019-05-18T03:41:55.477Z,32.50
2019-05-18T03:44:23.993Z,32.33
2019-05-18T03:46:52.562Z,30.52
2019-05-18T03:49:26.992Z,31.73
2019-05-18T03:51:51.215Z,31.00
2019-05-18T03:54:19.706Z,31.77
2019-05-18T03:56:48.230Z,36.23
2019-05-18T03:59:16.680Z,30.77
2019-05-18T04:01:45.229Z,33.00
2019-05-18T04:04:13.755Z,29.35
2019-05-18T04:06:42.241Z,30.90
2019-05-18T04:09:10.759Z,30.20
2019-05-18T04:11:39.317Z,31.33
2019-05-18T04:14:08.832Z,30.00
2019-05-18T04:16:37.514Z,32.17
2019-05-18T04:19:05.973Z,29.65
2019-05-18T04:21:34.421Z,31.33
2019-05-18T04:24:02.931Z,28.30
2019-05-18T04:26:31.376Z,31.75
2019-05-18T04:28:59.838Z,28.70
2019-05-18T04:31:31.939Z,29.42
2019-05-18T04:33:58.591Z,29.25
2019-05-18T04:36:27.044Z,31.07
2019-05-18T04:38:55.628Z,30.92
2019-05-18T04:41:24.085Z,30.97
2019-05-18T04:43:52.540Z,34.20
2019-05-18T04:46:21.049Z,34.33
2019-05-18T04:48:49.505Z,33.67
2019-05-18T04:51:17.969Z,31.25
2019-05-18T04:53:46.617Z,30.32
2019-05-18T04:56:15.078Z,34.63
2019-05-18T04:58:43.536Z,30.20
2019-05-18T05:01:12.032Z,33.95
2019-05-18T05:03:40.500Z,35.00
2019-05-18T05:06:08.973Z,33.50
2019-05-18T05:08:37.575Z,32.38
2019-05-18T05:11:06.156Z,34.98
2019-05-18T05:13:34.628Z,33.42
2019-05-18T05:16:03.142Z,34.43
2019-05-18T05:18:31.603Z,34.60
2019-05-18T05:21:00.126Z,37.30
2019-05-18T05:23:28.623Z,34.75
2019-05-18T05:25:57.084Z,37.60
2019-05-18T05:28:25.551Z,39.30
2019-05-18T05:30:54.057Z,37.38
2019-05-18T05:33:22.513Z,38.05
2019-05-18T05:35:50.969Z,39.35
2019-05-18T05:38:19.473Z,44.48
2019-05-18T05:40:47.931Z,43.85
2019-05-18T05:43:16.393Z,44.95
2019-05-18T05:45:44.896Z,45.08
2019-05-18T05:48:13.358Z,47.08
2019-05-18T05:50:41.828Z,46.83
2019-05-18T05:53:10.400Z,48.85
2019-05-18T05:55:38.860Z,45.88
2019-05-18T05:58:07.311Z,47.10
2019-05-18T06:00:35.833Z,46.98
2019-05-18T06:03:04.431Z,47.78
2019-05-18T06:05:32.900Z,49.42
2019-05-18T06:08:01.590Z,50.48
2019-05-18T06:10:30.055Z,53.10
2019-05-18T06:12:58.510Z,55.78
2019-05-18T06:15:27.020Z,55.73
2019-05-18T06:17:55.564Z,53.15
2019-05-18T06:20:24.031Z,59.18
2019-05-18T06:22:52.552Z,57.62
2019-05-18T06:25:21.012Z,58.85
2019-05-18T06:27:49.541Z,59.05
2019-05-18T06:30:18.704Z,60.50
2019-05-18T06:32:47.243Z,56.20
2019-05-18T06:35:15.885Z,58.05
2019-05-18T06:37:44.523Z,59.00
2019-05-18T06:40:13.053Z,59.40
2019-05-18T06:42:41.508Z,56.63
2019-05-18T06:45:10.273Z,54.33
2019-05-18T06:47:38.728Z,54.42
2019-05-18T06:50:12.557Z,55.43
2019-05-18T06:52:40.935Z,55.10
2019-05-18T06:55:11.162Z,58.58
2019-05-18T06:57:40.116Z,54.08
2019-05-18T07:00:10.846Z,54.30
2019-05-18T07:02:39.312Z,55.08
2019-05-18T07:05:08.045Z,55.10
2019-05-18T07:07:36.625Z,55.50
2019-05-18T07:10:09.375Z,55.20
2019-05-18T07:12:37.902Z,54.80
2019-05-18T07:15:08.851Z,54.15
2019-05-18T07:17:37.320Z,54.77
2019-05-18T07:20:06.642Z,53.25
2019-05-18T07:22:35.214Z,53.92
2019-05-18T07:25:05.428Z,55.45
2019-05-18T07:27:33.893Z,54.65
2019-05-18T07:30:02.588Z,57.95
2019-05-18T07:32:31.062Z,56.95
2019-05-18T07:34:59.529Z,56.20
2019-05-18T07:37:28.063Z,53.90
2019-05-18T07:39:56.683Z,52.62
2019-05-18T07:42:25.149Z,54.60
2019-05-18T07:44:53.724Z,56.70
2019-05-18T07:47:22.256Z,57.25
2019-05-18T07:49:50.730Z,54.00
2019-05-18T07:52:19.228Z,54.65
2019-05-18T07:54:47.692Z,56.68
2019-05-18T07:57:16.152Z,55.33
2019-05-18T07:59:44.667Z,55.80
2019-05-18T08:02:13.144Z,56.70
2019-05-18T08:04:41.613Z,56.50
2019-05-18T08:07:10.280Z,61.55
2019-05-18T08:09:38.735Z,53.65
2019-05-18T08:12:07.197Z,58.25
2019-05-18T08:14:35.700Z,56.45
2019-05-18T08:17:04.241Z,58.23
2019-05-18T08:19:32.687Z,54.85
2019-05-18T08:22:01.258Z,55.30
2019-05-18T08:24:29.715Z,58.55
2019-05-18T08:26:58.176Z,56.25
2019-05-18T08:29:26.668Z,53.20
2019-05-18T08:31:55.139Z,55.20
2019-05-18T08:34:23.666Z,51.35
2019-05-18T08:36:52.168Z,55.23
2019-05-18T08:39:20.628Z,52.50
2019-05-18T08:41:49.165Z,55.65
2019-05-18T08:44:17.870Z,53.65
2019-05-18T08:46:46.331Z,54.60
2019-05-18T08:49:14.864Z,50.08
2019-05-18T08:51:43.361Z,53.10
2019-05-18T08:54:11.827Z,54.45
2019-05-18T08:56:40.289Z,53.73
2019-05-18T08:59:08.804Z,53.42
2019-05-18T09:01:37.255Z,57.83
2019-05-18T09:04:05.717Z,54.45
2019-05-18T09:06:34.313Z,58.42
2019-05-18T09:09:04.418Z,57.78
2019-05-18T09:11:32.876Z,56.90
2019-05-18T09:14:01.584Z,58.17
2019-05-18T09:16:30.059Z,56.48
2019-05-18T09:18:58.518Z,59.35
2019-05-18T09:21:27.095Z,57.58
2019-05-18T09:23:55.553Z,59.23
2019-05-18T09:26:24.009Z,58.75
2019-05-18T09:28:52.515Z,60.10
2019-05-18T09:31:20.985Z,56.37
2019-05-18T09:33:49.452Z,55.95
2019-05-18T09:36:17.959Z,58.10
2019-05-18T09:38:46.488Z,58.80
2019-05-18T09:41:14.947Z,53.33
2019-05-18T09:43:43.523Z,54.67
2019-05-18T09:46:11.994Z,53.50
2019-05-18T09:48:40.457Z,53.52
2019-05-18T09:51:08.956Z,51.37
2019-05-18T09:53:50.480Z,50.28
2019-05-18T09:56:07.612Z,47.55
2019-05-18T09:58:36.256Z,47.62
2019-05-18T10:01:04.851Z,46.40
2019-05-18T10:03:33.321Z,46.45
2019-05-18T10:06:01.802Z,49.48
2019-05-18T10:08:30.258Z,46.65
2019-05-18T10:10:58.710Z,49.60
2019-05-18T10:13:27.454Z,49.67
2019-05-18T10:15:55.912Z,50.25
2019-05-18T10:18:24.391Z,50.25
2019-05-18T10:20:52.963Z,52.50
2019-05-18T10:23:21.433Z,46.80
2019-05-18T10:25:49.897Z,47.20
2019-05-18T10:28:18.403Z,45.60
2019-05-18T10:30:46.875Z,48.17
2019-05-18T10:33:15.329Z,48.50
2019-05-18T10:35:43.844Z,46.50
2019-05-18T10:38:12.312Z,46.60
2019-05-18T10:40:40.767Z,45.55
2019-05-18T10:43:09.260Z,45.88
2019-05-18T10:45:37.797Z,45.33
2019-05-18T10:48:06.472Z,43.02
2019-05-18T10:50:35.018Z,43.28
2019-05-18T10:53:03.478Z,43.52
2019-05-18T10:55:31.966Z,43.40
2019-05-18T10:58:00.525Z,42.38
2019-05-18T11:00:29.120Z,43.05
2019-05-18T11:02:57.597Z,39.92
2019-05-18T11:05:26.085Z,41.63
2019-05-18T11:07:54.557Z,42.40
2019-05-18T11:10:23.519Z,47.15
2019-05-18T11:12:52.333Z,43.75
2019-05-18T11:15:21.361Z,40.92
2019-05-18T11:17:49.965Z,41.50
2019-05-18T11:20:18.912Z,40.20
2019-05-18T11:22:47.429Z,41.90
2019-05-18T11:25:16.409Z,39.88
2019-05-18T11:27:44.926Z,40.58
2019-05-18T11:30:14.592Z,38.70
2019-05-18T11:32:43.046Z,40.33
2019-05-18T11:35:12.309Z,37.98
2019-05-18T11:37:40.982Z,37.13
2019-05-18T11:40:11.800Z,38.70
2019-05-18T11:42:40.434Z,39.98
2019-05-18T11:45:11.502Z,38.55
2019-05-18T11:47:39.942Z,38.17
2019-05-18T11:50:09.525Z,32.38
2019-05-18T11:52:38.204Z,35.52
2019-05-18T11:55:07.895Z,32.30
2019-05-18T11:57:36.539Z,32.53
2019-05-18T12:00:10.509Z,36.45
2019-05-18T12:02:38.972Z,37.53
2019-05-18T12:05:08.216Z,31.17
2019-05-18T12:07:36.686Z,30.50
2019-05-18T12:10:07.228Z,30.43
2019-05-18T12:12:35.928Z,29.30
2019-05-18T12:15:08.850Z,28.38
2019-05-18T12:17:37.462Z,30.00
2019-05-18T12:20:09.968Z,27.98
2019-05-18T12:22:38.525Z,27.00
2019-05-18T12:25:08.675Z,24.30
2019-05-18T12:27:37.302Z,25.00
2019-05-18T12:30:08.092Z,27.10
2019-05-18T12:32:36.552Z,26.12
2019-05-18T12:35:07.397Z,30.43
2019-05-18T12:37:35.856Z,28.80
2019-05-18T12:40:06.666Z,26.02
2019-05-18T12:42:35.175Z,25.72
2019-05-18T12:45:04.040Z,26.23
2019-05-18T12:47:32.502Z,29.18
2019-05-18T12:50:00.994Z,28.23
2019-05-18T12:52:29.521Z,28.17
2019-05-18T12:54:57.982Z,26.00
2019-05-18T12:57:26.633Z,25.35
2019-05-18T12:59:55.107Z,29.65
2019-05-18T13:02:23.645Z,23.40
2019-05-18T13:04:52.205Z,23.52
2019-05-18T13:07:20.684Z,22.87
2019-05-18T13:09:49.496Z,22.35
2019-05-18T13:12:17.990Z,22.05
2019-05-18T13:14:46.461Z,20.75
2019-05-18T13:17:14.918Z,20.55
2019-05-18T13:19:43.481Z,20.15
2019-05-18T13:22:11.945Z,20.15
2019-05-18T13:24:45.177Z,18.62
2019-05-18T13:27:10.645Z,21.97
2019-05-18T13:29:39.106Z,17.87
2019-05-18T13:32:07.629Z,17.80
2019-05-18T13:34:36.122Z,19.30
2019-05-18T13:37:04.585Z,20.57
2019-05-18T13:39:33.074Z,16.82
2019-05-18T13:42:01.644Z,12.15
2019-05-18T13:44:30.095Z,8.95
2019-05-18T13:46:58.629Z,7.92
2019-05-18T13:49:27.242Z,9.33
2019-05-18T13:51:55.724Z,8.48
2019-05-18T13:54:24.185Z,9.53
2019-05-18T13:56:52.667Z,8.15
2019-05-18T13:59:21.118Z,8.25
2019-05-18T14:01:49.584Z,12.75
2019-05-18T14:04:18.080Z,10.45
2019-05-18T14:06:46.541Z,13.35
2019-05-18T14:09:15.006Z,16.07
2019-05-18T14:11:43.502Z,15.30
2019-05-18T14:14:11.968Z,15.58
2019-05-18T14:16:40.428Z,13.35
2019-05-18T14:19:09.001Z,14.63
2019-05-18T14:21:37.472Z,14.58
2019-05-18T14:24:05.930Z,11.18
2019-05-18T14:26:34.446Z,11.20
2019-05-18T14:29:03.029Z,14.38
2019-05-18T14:31:31.561Z,12.65
2019-05-18T14:34:00.137Z,11.97
2019-05-18T14:36:28.595Z,11.55
2019-05-18T14:38:57.102Z,10.03
2019-05-18T14:41:25.620Z,10.53
2019-05-18T14:43:54.082Z,12.13
2019-05-18T14:46:22.547Z,10.15
2019-05-18T14:48:51.047Z,11.50
2019-05-18T14:51:19.494Z,8.80
2019-05-18T14:53:47.952Z,10.63
2019-05-18T14:56:16.453Z,11.08
2019-05-18T14:58:44.928Z,11.20
2019-05-18T15:01:13.384Z,12.15
2019-05-18T15:03:41.965Z,10.25
2019-05-18T15:06:10.420Z,11.25
2019-05-18T15:08:38.881Z,9.45
2019-05-18T15:11:07.450Z,8.60
2019-05-18T15:13:35.976Z,11.05
2019-05-18T15:16:05.361Z,8.95
2019-05-18T15:18:33.862Z,10.43
2019-05-18T15:21:02.323Z,9.83
2019-05-18T15:23:30.795Z,9.35
2019-05-18T15:25:59.308Z,9.00
2019-05-18T15:28:27.761Z,10.78
2019-05-18T15:30:56.223Z,11.22
2019-05-18T15:33:24.720Z,9.40
2019-05-18T15:35:53.181Z,12.03
2019-05-18T15:38:21.636Z,9.30
2019-05-18T15:40:50.140Z,9.15
2019-05-18T15:43:18.587Z,11.00
2019-05-18T15:45:47.048Z,10.63
2019-05-18T15:48:15.541Z,9.70
2019-05-18T15:50:44.078Z,9.25
2019-05-18T15:53:12.601Z,8.50
2019-05-18T15:55:41.097Z,9.80
2019-05-18T15:58:09.548Z,9.33
2019-05-18T16:00:38.080Z,7.75
2019-05-18T16:03:06.641Z,10.75
2019-05-18T16:05:35.755Z,10.78
2019-05-18T16:08:04.423Z,10.75
2019-05-18T16:10:32.964Z,11.60
2019-05-18T16:13:01.502Z,11.97
2019-05-18T16:15:30.156Z,10.32
2019-05-18T16:17:58.656Z,10.88
2019-05-18T16:20:46.553Z,12.25
2019-05-18T16:23:15.042Z,14.15
2019-05-18T16:25:44.141Z,12.60
2019-05-18T16:28:12.603Z,15.08
2019-05-18T16:30:41.237Z,12.95
2019-05-18T16:33:09.689Z,17.15
2019-05-18T16:35:38.145Z,12.50
2019-05-18T16:38:06.635Z,13.88
2019-05-18T16:40:35.113Z,17.20
2019-05-18T16:43:03.643Z,12.13
2019-05-18T16:45:32.148Z,15.55
2019-05-18T16:48:00.597Z,13.93
2019-05-18T16:50:29.076Z,12.68
2019-05-18T16:52:57.650Z,15.10
2019-05-18T16:55:26.103Z,13.83
2019-05-18T16:57:54.591Z,13.35
2019-05-18T17:00:23.787Z,13.08
2019-05-18T17:02:52.263Z,15.05
2019-05-18T17:05:20.795Z,12.95
2019-05-18T17:07:49.368Z,15.15
2019-05-18T17:10:18.869Z,13.88
2019-05-18T17:12:47.348Z,14.38
2019-05-18T17:15:16.417Z,12.85
2019-05-18T17:17:44.948Z,15.00
2019-05-18T17:20:14.018Z,12.82
2019-05-18T17:22:42.534Z,15.32
2019-05-18T17:25:12.680Z,13.98
2019-05-18T17:27:41.149Z,17.98
2019-05-18T17:30:10.949Z,17.42
2019-05-18T17:32:39.407Z,17.45
2019-05-18T17:35:08.813Z,16.50
2019-05-18T17:37:37.316Z,18.20
2019-05-18T17:40:07.442Z,21.15
2019-05-18T17:42:35.967Z,20.35
2019-05-18T17:45:07.421Z,21.20
2019-05-18T17:47:35.890Z,22.67
2019-05-18T17:50:07.561Z,22.02
2019-05-18T17:52:36.086Z,22.17
2019-05-18T17:55:06.156Z,24.25
2019-05-18T17:57:34.622Z,27.98
2019-05-18T18:00:04.666Z,28.52
2019-05-18T18:02:33.203Z,29.92
2019-05-18T18:05:01.660Z,32.05
2019-05-18T18:07:30.146Z,31.68
2019-05-18T18:09:58.610Z,33.88
2019-05-18T18:12:27.149Z,32.00
2019-05-18T18:14:55.655Z,31.70
2019-05-18T18:17:24.127Z,31.87
2019-05-18T18:19:52.647Z,28.32
2019-05-18T18:22:23.743Z,29.30
2019-05-18T18:24:51.347Z,37.65
2019-05-18T18:27:25.298Z,38.85
2019-05-18T18:29:50.191Z,38.33
2019-05-18T18:32:18.735Z,44.67
2019-05-18T18:34:47.202Z,40.98
2019-05-18T18:37:15.702Z,46.88
2019-05-18T18:39:44.174Z,43.08
2019-05-18T18:42:12.705Z,44.20
2019-05-18T18:44:41.208Z,49.23
2019-05-18T18:47:09.669Z,43.55
2019-05-18T18:49:38.131Z,42.70
2019-05-18T18:52:06.720Z,42.55
2019-05-18T18:54:35.254Z,44.03
2019-05-18T18:57:03.765Z,46.83
2019-05-18T18:59:32.264Z,45.15
2019-05-18T19:02:00.737Z,48.02
2019-05-18T19:04:29.362Z,44.58
2019-05-18T19:06:57.926Z,47.60
2019-05-18T19:09:26.385Z,49.45
2019-05-18T19:11:54.848Z,48.75
2019-05-18T19:14:23.537Z,50.45
2019-05-18T19:16:52.135Z,49.65
2019-05-18T19:19:20.618Z,49.88
2019-05-18T19:21:49.132Z,53.40
2019-05-18T19:24:17.582Z,54.20
2019-05-18T19:26:46.045Z,53.30
2019-05-18T19:29:14.742Z,56.15
2019-05-18T19:31:43.203Z,52.50
2019-05-18T19:34:11.661Z,60.10
2019-05-18T19:36:40.379Z,53.15
2019-05-18T19:39:08.840Z,52.90
2019-05-18T19:41:37.408Z,56.08
2019-05-18T19:44:05.943Z,52.00
2019-05-18T19:46:34.420Z,52.62
2019-05-18T19:49:02.944Z,56.02
2019-05-18T19:51:31.471Z,55.60
2019-05-18T19:53:59.974Z,56.40
2019-05-18T19:56:28.430Z,52.03
2019-05-18T19:58:56.939Z,56.28
2019-05-18T20:01:25.481Z,53.23
2019-05-18T20:03:53.961Z,54.40
2019-05-18T20:06:22.451Z,53.98
2019-05-18T20:08:51.030Z,54.10
2019-05-18T20:11:19.568Z,54.15
2019-05-18T20:13:48.054Z,56.63
2019-05-18T20:16:16.575Z,57.13
2019-05-18T20:18:45.041Z,56.02
2019-05-18T20:21:13.504Z,58.80
2019-05-18T20:23:42.074Z,60.08
2019-05-18T20:26:10.543Z,57.40
2019-05-18T20:28:39.071Z,58.05
2019-05-18T20:31:07.640Z,58.33
2019-05-18T20:33:36.103Z,60.52
2019-05-18T20:36:04.582Z,58.30
2019-05-18T20:38:33.054Z,61.35
2019-05-18T20:41:01.554Z,61.45
2019-05-18T20:43:30.017Z,58.55
2019-05-18T20:45:58.509Z,61.13
2019-05-18T20:48:27.166Z,58.92
2019-05-18T20:50:55.621Z,60.83
2019-05-18T20:53:24.106Z,61.85
2019-05-18T20:55:52.574Z,58.02
2019-05-18T20:58:21.156Z,58.42
2019-05-18T21:00:49.694Z,59.25
2019-05-18T21:03:18.169Z,57.45
2019-05-18T21:05:46.719Z,55.92
2019-05-18T21:08:15.179Z,60.92
2019-05-18T21:10:44.700Z,61.08
2019-05-18T21:13:13.165Z,59.75
2019-05-18T21:15:41.664Z,64.27
2019-05-18T21:18:10.137Z,61.35
2019-05-18T21:20:38.598Z,63.98
2019-05-18T21:23:07.076Z,63.78
2019-05-18T21:25:35.564Z,64.27
2019-05-18T21:28:04.055Z,64.40
2019-05-18T21:30:32.581Z,65.30
2019-05-18T21:33:01.091Z,68.50
2019-05-18T21:35:29.562Z,67.82
2019-05-18T21:37:58.027Z,66.20
2019-05-18T21:40:26.596Z,71.53
2019-05-18T21:42:55.135Z,69.15
2019-05-18T21:45:23.600Z,68.37
2019-05-18T21:47:52.069Z,71.77
2019-05-18T21:50:20.645Z,70.00
2019-05-18T21:52:49.104Z,68.80
2019-05-18T21:55:17.563Z,73.75
2019-05-18T21:57:46.029Z,71.72
2019-05-18T22:00:15.130Z,75.20
2019-05-18T22:02:43.847Z,74.53
2019-05-18T22:05:12.553Z,75.92
2019-05-18T22:07:41.062Z,74.82
2019-05-18T22:10:23.444Z,79.92
2019-05-18T22:12:40.163Z,79.77
2019-05-18T22:15:09.274Z,79.12
2019-05-18T22:17:56.069Z,80.35
2019-05-18T22:20:24.568Z,80.75
2019-05-18T22:22:53.086Z,79.87
2019-05-18T22:25:21.598Z,77.85
2019-05-18T22:27:50.150Z,78.10
2019-05-18T22:30:18.718Z,77.30
2019-05-18T22:32:47.237Z,77.20
2019-05-18T22:35:15.716Z,82.47
2019-05-18T22:37:44.268Z,78.62
2019-05-18T22:40:12.943Z,83.65
2019-05-18T22:42:41.458Z,80.22
2019-05-18T22:45:10.903Z,80.97
2019-05-18T22:47:39.372Z,83.82
2019-05-18T22:50:08.584Z,89.03
2019-05-18T22:52:37.049Z,85.97
2019-05-18T22:55:06.862Z,84.77
2019-05-18T22:57:35.340Z,86.95
2019-05-18T23:00:06.038Z,89.60
2019-05-18T23:02:34.506Z,83.78
2019-05-18T23:05:02.972Z,88.27
2019-05-18T23:07:31.456Z,84.05
2019-05-18T23:09:59.918Z,84.20
2019-05-18T23:12:28.467Z,83.82
2019-05-18T23:14:56.946Z,90.70
2019-05-18T23:17:25.433Z,87.78
2019-05-18T23:19:53.895Z,89.55
2019-05-18T23:22:22.373Z,86.37
2019-05-18T23:24:50.928Z,95.03
2019-05-18T23:27:19.451Z,89.90
2019-05-18T23:29:47.926Z,86.67
2019-05-18T23:32:16.400Z,87.85
2019-05-18T23:34:44.876Z,97.27
2019-05-18T23:37:13.366Z,97.70
2019-05-18T23:39:41.826Z,91.42
2019-05-18T23:42:10.315Z,96.90
2019-05-18T23:44:38.767Z,89.30
2019-05-18T23:47:07.223Z,96.08
2019-05-18T23:49:35.709Z,90.53
2019-05-18T23:52:04.173Z,95.20
2019-05-18T23:54:32.795Z,97.17
2019-05-18T23:57:01.267Z,100.02
2019-05-18T23:59:29.720Z,94.10
